RPC915 RPMZ-RPMD
Flight info
| Callsign | RPC915 |
|---|---|
| Flight time | 0h 42m |
| Altitude | 37000 |
| Route | GOSTO1W GOSTO W10 LINAO LINAO2P |
| Aircraft | C700/M-SBDGHM1RWXY/LB2 |
Departure
| Time | 2026-04-22 08:13 |
|---|---|
| Airport | Zamboanga International Airport (RPMZ) |
Arrival
| Time | 2026-04-22 08:56 |
|---|---|
| Airport | Francisco Bangoy International Airport (RPMD) |
| Time | Latitude | Longitude | Altitude | Speed | Heading |
|---|---|---|---|---|---|
| 2026-04-22 07:58 | 6.92295 | 122.07115 | 30 ft | 0 kts | 78° |
| 2026-04-22 08:08 | 6.92294 | 122.07117 | 30 ft | 1 kts | 101° |
| 2026-04-22 08:09 | 6.92255 | 122.07127 | 31 ft | 14 kts | 183° |
| 2026-04-22 08:09 | 6.92189 | 122.07113 | 31 ft | 8 kts | 127° |
| 2026-04-22 08:09 | 6.92166 | 122.07109 | 30 ft | 2 kts | 269° |
| 2026-04-22 08:09 | 6.92168 | 122.07091 | 30 ft | 0 kts | 273° |
| 2026-04-22 08:13 | 6.92177 | 122.06961 | 29 ft | 62 kts | 274° |
| 2026-04-22 08:13 | 6.92229 | 122.06191 | 156 ft | 152 kts | 274° |
| 2026-04-22 08:13 | 6.92306 | 122.04984 | 1196 ft | 188 kts | 273° |
| 2026-04-22 08:14 | 6.92405 | 122.03566 | 2470 ft | 216 kts | 274° |
| 2026-04-22 08:14 | 6.92514 | 122.01989 | 3815 ft | 237 kts | 274° |
| 2026-04-22 08:14 | 6.92631 | 122.00240 | 5059 ft | 263 kts | 274° |
| 2026-04-22 08:14 | 6.92706 | 121.98334 | 6470 ft | 277 kts | 266° |
| 2026-04-22 08:15 | 6.92068 | 121.96523 | 8091 ft | 280 kts | 232° |
| 2026-04-22 08:15 | 6.90540 | 121.95376 | 9686 ft | 283 kts | 199° |
| 2026-04-22 08:15 | 6.88557 | 121.95198 | 10918 ft | 301 kts | 171° |
| 2026-04-22 08:15 | 6.86581 | 121.96120 | 12023 ft | 321 kts | 139° |
| 2026-04-22 08:16 | 6.85332 | 121.97945 | 13508 ft | 329 kts | 111° |
| 2026-04-22 08:16 | 6.84795 | 122.00240 | 14784 ft | 337 kts | 99° |
| 2026-04-22 08:16 | 6.84457 | 122.02593 | 16066 ft | 343 kts | 99° |
| 2026-04-22 08:16 | 6.83994 | 122.04939 | 17302 ft | 350 kts | 104° |
| 2026-04-22 08:17 | 6.83221 | 122.07323 | 18505 ft | 357 kts | 110° |
| 2026-04-22 08:17 | 6.82366 | 122.09651 | 19588 ft | 362 kts | 109° |
| 2026-04-22 08:17 | 6.81600 | 122.12081 | 20653 ft | 367 kts | 106° |
| 2026-04-22 08:17 | 6.80887 | 122.14568 | 21714 ft | 373 kts | 106° |
| 2026-04-22 08:18 | 6.80101 | 122.17110 | 22782 ft | 378 kts | 107° |
| 2026-04-22 08:18 | 6.79455 | 122.19650 | 23725 ft | 383 kts | 98° |
| 2026-04-22 08:18 | 6.79296 | 122.22339 | 24542 ft | 388 kts | 88° |
| 2026-04-22 08:18 | 6.79636 | 122.25048 | 25347 ft | 394 kts | 78° |
| 2026-04-22 08:19 | 6.80466 | 122.27696 | 26120 ft | 400 kts | 67° |
| 2026-04-22 08:19 | 6.81997 | 122.30053 | 26901 ft | 407 kts | 51° |
| 2026-04-22 08:19 | 6.83786 | 122.32285 | 27669 ft | 413 kts | 52° |
| 2026-04-22 08:19 | 6.85579 | 122.34565 | 28424 ft | 418 kts | 50° |
| 2026-04-22 08:20 | 6.87564 | 122.36733 | 29173 ft | 424 kts | 46° |
| 2026-04-22 08:20 | 6.89668 | 122.38843 | 29897 ft | 430 kts | 46° |
| 2026-04-22 08:20 | 6.91718 | 122.41058 | 30528 ft | 434 kts | 49° |
| 2026-04-22 08:20 | 6.93721 | 122.43353 | 31162 ft | 439 kts | 50° |
| 2026-04-22 08:21 | 6.95502 | 122.45856 | 31770 ft | 442 kts | 60° |
| 2026-04-22 08:21 | 6.96844 | 122.48652 | 32377 ft | 446 kts | 70° |
| 2026-04-22 08:21 | 6.97700 | 122.51658 | 32960 ft | 449 kts | 79° |
| 2026-04-22 08:21 | 6.98102 | 122.54767 | 33728 ft | 447 kts | 84° |
| 2026-04-22 08:22 | 6.98457 | 122.57864 | 34426 ft | 445 kts | 84° |
| 2026-04-22 08:22 | 6.98818 | 122.60956 | 35069 ft | 444 kts | 84° |
| 2026-04-22 08:22 | 6.99167 | 122.64045 | 35747 ft | 444 kts | 84° |
| 2026-04-22 08:22 | 6.99512 | 122.67124 | 36435 ft | 442 kts | 84° |
| 2026-04-22 08:23 | 6.99863 | 122.70212 | 36813 ft | 449 kts | 84° |
| 2026-04-22 08:23 | 7.00226 | 122.73389 | 36811 ft | 464 kts | 84° |
| 2026-04-22 08:23 | 7.00598 | 122.76667 | 36816 ft | 478 kts | 84° |
| 2026-04-22 08:23 | 7.00978 | 122.80023 | 36827 ft | 485 kts | 84° |
| 2026-04-22 08:24 | 7.01749 | 122.86803 | 36826 ft | 488 kts | 84° |
| 2026-04-22 08:24 | 7.02518 | 122.93599 | 36827 ft | 489 kts | 84° |
| 2026-04-22 08:25 | 7.03287 | 123.00396 | 36828 ft | 489 kts | 84° |
| 2026-04-22 08:25 | 7.04056 | 123.07198 | 36824 ft | 489 kts | 84° |
| 2026-04-22 08:26 | 7.04823 | 123.14001 | 36824 ft | 489 kts | 84° |
| 2026-04-22 08:26 | 7.05460 | 123.19653 | 36824 ft | 489 kts | 84° |
| 2026-04-22 08:27 | 7.06225 | 123.26453 | 36820 ft | 489 kts | 84° |
| 2026-04-22 08:27 | 7.06990 | 123.33255 | 36820 ft | 489 kts | 84° |
| 2026-04-22 08:28 | 7.07754 | 123.40053 | 36825 ft | 489 kts | 84° |
| 2026-04-22 08:28 | 7.08516 | 123.46857 | 36820 ft | 489 kts | 84° |
| 2026-04-22 08:29 | 7.09284 | 123.53706 | 36822 ft | 489 kts | 84° |
| 2026-04-22 08:29 | 7.10043 | 123.60506 | 36823 ft | 489 kts | 84° |
| 2026-04-22 08:30 | 7.10802 | 123.67299 | 36824 ft | 488 kts | 84° |
| 2026-04-22 08:30 | 7.11560 | 123.74095 | 36821 ft | 488 kts | 84° |
| 2026-04-22 08:31 | 7.12312 | 123.80846 | 36823 ft | 489 kts | 84° |
| 2026-04-22 08:32 | 7.13450 | 123.91086 | 36823 ft | 488 kts | 84° |
| 2026-04-22 08:32 | 7.14200 | 123.97834 | 36821 ft | 488 kts | 84° |
| 2026-04-22 08:33 | 7.14952 | 124.04624 | 36649 ft | 486 kts | 84° |
| 2026-04-22 08:33 | 7.15323 | 124.07977 | 36037 ft | 477 kts | 84° |
| 2026-04-22 08:33 | 7.15687 | 124.11260 | 35416 ft | 467 kts | 84° |
| 2026-04-22 08:33 | 7.16043 | 124.14482 | 34805 ft | 460 kts | 84° |
| 2026-04-22 08:34 | 7.16395 | 124.17674 | 34201 ft | 459 kts | 84° |
| 2026-04-22 08:34 | 7.16752 | 124.20877 | 33567 ft | 464 kts | 84° |
| 2026-04-22 08:34 | 7.17229 | 124.24101 | 32941 ft | 466 kts | 82° |
| 2026-04-22 08:34 | 7.17719 | 124.27337 | 32324 ft | 468 kts | 82° |
| 2026-04-22 08:35 | 7.18191 | 124.30580 | 31699 ft | 469 kts | 82° |
| 2026-04-22 08:35 | 7.18666 | 124.33836 | 31083 ft | 471 kts | 82° |
| 2026-04-22 08:35 | 7.19154 | 124.37098 | 30463 ft | 472 kts | 82° |
| 2026-04-22 08:35 | 7.19646 | 124.40369 | 29831 ft | 473 kts | 82° |
| 2026-04-22 08:36 | 7.20128 | 124.43637 | 29161 ft | 470 kts | 82° |
| 2026-04-22 08:36 | 7.20603 | 124.46874 | 28555 ft | 465 kts | 82° |
| 2026-04-22 08:36 | 7.21078 | 124.50077 | 27937 ft | 460 kts | 82° |
| 2026-04-22 08:36 | 7.21550 | 124.53248 | 27331 ft | 455 kts | 82° |
| 2026-04-22 08:37 | 7.22013 | 124.56383 | 26734 ft | 450 kts | 82° |
| 2026-04-22 08:37 | 7.22469 | 124.59479 | 26144 ft | 445 kts | 82° |
| 2026-04-22 08:37 | 7.22922 | 124.62546 | 25562 ft | 441 kts | 82° |
| 2026-04-22 08:37 | 7.23372 | 124.65580 | 24984 ft | 436 kts | 82° |
| 2026-04-22 08:38 | 7.23815 | 124.68590 | 24410 ft | 432 kts | 82° |
| 2026-04-22 08:38 | 7.24255 | 124.71570 | 23841 ft | 428 kts | 82° |
| 2026-04-22 08:38 | 7.24690 | 124.74521 | 23262 ft | 424 kts | 82° |
| 2026-04-22 08:38 | 7.25122 | 124.77446 | 22675 ft | 419 kts | 82° |
| 2026-04-22 08:39 | 7.25547 | 124.80339 | 22126 ft | 416 kts | 81° |
| 2026-04-22 08:39 | 7.25971 | 124.83210 | 21583 ft | 413 kts | 81° |
| 2026-04-22 08:39 | 7.26390 | 124.86064 | 21034 ft | 410 kts | 81° |
| 2026-04-22 08:39 | 7.26807 | 124.88897 | 20500 ft | 408 kts | 81° |
| 2026-04-22 08:40 | 7.27222 | 124.91710 | 19972 ft | 405 kts | 81° |
| 2026-04-22 08:40 | 7.27631 | 124.94505 | 19439 ft | 402 kts | 81° |
| 2026-04-22 08:40 | 7.28039 | 124.97282 | 18919 ft | 399 kts | 81° |
| 2026-04-22 08:40 | 7.28445 | 125.00039 | 18398 ft | 396 kts | 81° |
| 2026-04-22 08:41 | 7.28846 | 125.02773 | 17853 ft | 393 kts | 81° |
| 2026-04-22 08:41 | 7.29243 | 125.05480 | 17330 ft | 389 kts | 81° |
| 2026-04-22 08:41 | 7.29637 | 125.08166 | 16823 ft | 387 kts | 81° |
| 2026-04-22 08:41 | 7.30029 | 125.10836 | 16315 ft | 384 kts | 81° |
| 2026-04-22 08:42 | 7.30418 | 125.13490 | 15816 ft | 382 kts | 81° |
| 2026-04-22 08:42 | 7.30805 | 125.16129 | 15318 ft | 380 kts | 81° |
| 2026-04-22 08:42 | 7.31189 | 125.18756 | 14825 ft | 379 kts | 81° |
| 2026-04-22 08:42 | 7.31572 | 125.21374 | 14330 ft | 377 kts | 82° |
| 2026-04-22 08:43 | 7.31952 | 125.23977 | 13838 ft | 375 kts | 82° |
| 2026-04-22 08:43 | 7.32327 | 125.26540 | 13326 ft | 361 kts | 82° |
| 2026-04-22 08:43 | 7.32682 | 125.28970 | 12850 ft | 342 kts | 81° |
| 2026-04-22 08:43 | 7.33020 | 125.31281 | 12414 ft | 326 kts | 82° |
| 2026-04-22 08:44 | 7.33342 | 125.33490 | 11994 ft | 313 kts | 81° |
| 2026-04-22 08:44 | 7.33654 | 125.35619 | 11589 ft | 303 kts | 81° |
| 2026-04-22 08:44 | 7.33957 | 125.37701 | 11195 ft | 299 kts | 81° |
| 2026-04-22 08:44 | 7.34193 | 125.39777 | 10797 ft | 298 kts | 89° |
| 2026-04-22 08:45 | 7.34078 | 125.41851 | 10547 ft | 297 kts | 93° |
| 2026-04-22 08:45 | 7.34012 | 125.43941 | 10191 ft | 300 kts | 91° |
| 2026-04-22 08:45 | 7.33965 | 125.46035 | 9803 ft | 298 kts | 91° |
| 2026-04-22 08:45 | 7.33889 | 125.48115 | 9386 ft | 295 kts | 92° |
| 2026-04-22 08:46 | 7.33808 | 125.50168 | 8992 ft | 292 kts | 91° |
| 2026-04-22 08:46 | 7.33736 | 125.52202 | 8607 ft | 289 kts | 91° |
| 2026-04-22 08:46 | 7.33665 | 125.54220 | 8225 ft | 287 kts | 91° |
| 2026-04-22 08:46 | 7.33594 | 125.56223 | 7847 ft | 285 kts | 91° |
| 2026-04-22 08:47 | 7.33522 | 125.58213 | 7471 ft | 283 kts | 91° |
| 2026-04-22 08:47 | 7.33451 | 125.60189 | 7102 ft | 282 kts | 91° |
| 2026-04-22 08:47 | 7.33380 | 125.62160 | 6727 ft | 281 kts | 91° |
| 2026-04-22 08:47 | 7.33311 | 125.64116 | 6361 ft | 279 kts | 91° |
| 2026-04-22 08:48 | 7.33241 | 125.66065 | 5975 ft | 280 kts | 90° |
| 2026-04-22 08:48 | 7.33169 | 125.67979 | 5616 ft | 263 kts | 90° |
| 2026-04-22 08:48 | 7.33083 | 125.69753 | 5346 ft | 241 kts | 94° |
| 2026-04-22 08:48 | 7.32689 | 125.71225 | 5163 ft | 196 kts | 109° |
| 2026-04-22 08:49 | 7.32110 | 125.72391 | 5056 ft | 185 kts | 118° |
| 2026-04-22 08:49 | 7.31324 | 125.73405 | 4835 ft | 182 kts | 131° |
| 2026-04-22 08:49 | 7.30376 | 125.74253 | 4605 ft | 183 kts | 138° |
| 2026-04-22 08:49 | 7.29408 | 125.75078 | 4360 ft | 180 kts | 136° |
| 2026-04-22 08:50 | 7.28475 | 125.75904 | 4138 ft | 178 kts | 136° |
| 2026-04-22 08:50 | 7.27535 | 125.76718 | 3926 ft | 170 kts | 137° |
| 2026-04-22 08:50 | 7.26674 | 125.77451 | 3744 ft | 162 kts | 137° |
| 2026-04-22 08:50 | 7.25699 | 125.77942 | 3527 ft | 157 kts | 169° |
| 2026-04-22 08:51 | 7.24628 | 125.77930 | 3324 ft | 151 kts | 192° |
| 2026-04-22 08:51 | 7.23709 | 125.77491 | 3131 ft | 145 kts | 217° |
| 2026-04-22 08:51 | 7.23029 | 125.76765 | 2937 ft | 142 kts | 232° |
| 2026-04-22 08:51 | 7.22394 | 125.76011 | 2757 ft | 140 kts | 227° |
| 2026-04-22 08:52 | 7.21752 | 125.75278 | 2574 ft | 139 kts | 228° |
| 2026-04-22 08:52 | 7.21129 | 125.74544 | 2389 ft | 138 kts | 227° |
| 2026-04-22 08:52 | 7.20509 | 125.73823 | 2197 ft | 135 kts | 227° |
| 2026-04-22 08:52 | 7.19898 | 125.73110 | 2020 ft | 134 kts | 226° |
| 2026-04-22 08:53 | 7.19296 | 125.72407 | 1913 ft | 130 kts | 226° |
| 2026-04-22 08:53 | 7.18700 | 125.71715 | 1918 ft | 130 kts | 226° |
| 2026-04-22 08:53 | 7.18102 | 125.71021 | 1918 ft | 135 kts | 224° |
| 2026-04-22 08:53 | 7.17528 | 125.70354 | 1560 ft | 123 kts | 225° |
| 2026-04-22 08:54 | 7.16969 | 125.69701 | 1056 ft | 115 kts | 224° |
| 2026-04-22 08:54 | 7.16414 | 125.69069 | 965 ft | 125 kts | 224° |
| 2026-04-22 08:54 | 7.15860 | 125.68421 | 828 ft | 119 kts | 225° |
| 2026-04-22 08:54 | 7.15348 | 125.67827 | 641 ft | 106 kts | 225° |
| 2026-04-22 08:55 | 7.14873 | 125.67275 | 532 ft | 106 kts | 229° |
| 2026-04-22 08:55 | 7.14398 | 125.66712 | 466 ft | 110 kts | 226° |
| 2026-04-22 08:55 | 7.13860 | 125.66095 | 286 ft | 120 kts | 228° |
| 2026-04-22 08:55 | 7.13496 | 125.65671 | 167 ft | 121 kts | 229° |
| 2026-04-22 08:56 | 7.12826 | 125.64891 | 97 ft | 86 kts | 228° |
| 2026-04-22 08:56 | 7.12633 | 125.64666 | 95 ft | 40 kts | 229° |
| 2026-04-22 08:56 | 7.12617 | 125.64513 | 95 ft | 7 kts | 317° |
| 2026-04-22 08:56 | 7.12619 | 125.64512 | 95 ft | 0 kts | 317° |
| 2026-04-22 08:57 | 7.12653 | 125.64482 | 95 ft | 13 kts | 321° |
| 2026-04-22 08:57 | 7.12751 | 125.64416 | 95 ft | 19 kts | 323° |
| 2026-04-22 08:57 | 7.12811 | 125.64365 | 95 ft | 0 kts | 321° |
| 2026-04-22 09:01 | 7.12811 | 125.64366 | 95 ft | 0 kts | 321° |